createdAt,value
2023-04-25T00:01:23.623Z,7.60
2023-04-25T00:03:51.756Z,7.50
2023-04-25T00:06:19.359Z,7.40
2023-04-25T00:08:46.415Z,7.40
2023-04-25T00:11:13.457Z,7.40
2023-04-25T00:13:42.770Z,7.40
2023-04-25T00:16:09.979Z,7.30
2023-04-25T00:18:37.395Z,7.30
2023-04-25T00:21:07.404Z,7.20
2023-04-25T00:23:36.588Z,7.20
2023-04-25T00:26:03.943Z,7.20
2023-04-25T00:28:30.993Z,7.10
2023-04-25T00:30:58.107Z,7.00
2023-04-25T00:33:25.240Z,7.00
2023-04-25T00:35:52.282Z,7.00
2023-04-25T00:38:19.275Z,7.00
2023-04-25T00:40:46.360Z,7.00
2023-04-25T00:43:13.363Z,7.00
2023-04-25T00:45:41.003Z,7.10
2023-04-25T00:48:08.265Z,7.10
2023-04-25T00:50:35.764Z,7.00
2023-04-25T00:53:04.307Z,7.00
2023-04-25T00:55:32.557Z,7.00
2023-04-25T00:57:59.716Z,7.00
2023-04-25T01:00:26.893Z,7.10
2023-04-25T01:02:54.403Z,7.10
2023-04-25T01:05:22.051Z,7.00
2023-04-25T01:07:49.195Z,7.00
2023-04-25T01:10:16.208Z,7.10
2023-04-25T01:12:43.461Z,7.20
2023-04-25T01:15:11.491Z,7.20
2023-04-25T01:17:38.920Z,7.20
2023-04-25T01:20:06.632Z,7.20
2023-04-25T01:22:34.501Z,7.10
2023-04-25T01:25:01.958Z,7.20
2023-04-25T01:27:31.823Z,7.20
2023-04-25T01:29:59.122Z,7.30
2023-04-25T01:32:27.231Z,7.20
2023-04-25T01:34:56.572Z,7.20
2023-04-25T01:37:23.725Z,7.20
2023-04-25T01:39:51.246Z,7.20
2023-04-25T01:42:18.289Z,7.10
2023-04-25T01:44:45.711Z,7.00
2023-04-25T01:47:12.748Z,7.00
2023-04-25T01:49:39.785Z,7.00
2023-04-25T01:52:06.844Z,7.00
2023-04-25T01:54:34.013Z,6.90
2023-04-25T01:57:01.634Z,7.00
2023-04-25T01:59:29.777Z,6.90
2023-04-25T02:02:09.402Z,6.90
2023-04-25T02:04:37.495Z,6.80
2023-04-25T02:07:05.144Z,6.80
2023-04-25T02:09:46.905Z,6.80
2023-04-25T02:12:14.184Z,6.80
2023-04-25T02:15:11.855Z,6.80
2023-04-25T02:17:46.279Z,6.80
2023-04-25T02:20:14.349Z,6.70
2023-04-25T02:22:41.550Z,6.60
2023-04-25T02:25:10.160Z,6.60
2023-04-25T02:27:37.215Z,6.60
2023-04-25T02:30:05.901Z,6.60
2023-04-25T02:32:35.392Z,6.60
2023-04-25T02:35:06.629Z,6.60
2023-04-25T02:37:38.481Z,6.60
2023-04-25T02:40:06.187Z,6.60
2023-04-25T02:42:33.964Z,6.60
2023-04-25T02:45:01.489Z,6.60
2023-04-25T02:47:28.793Z,6.60
2023-04-25T02:49:57.552Z,6.60
2023-04-25T02:52:24.657Z,6.60
2023-04-25T02:54:59.784Z,6.50
2023-04-25T02:57:28.368Z,6.50
2023-04-25T02:59:55.566Z,6.50
2023-04-25T03:02:23.747Z,6.50
2023-04-25T03:04:51.121Z,6.50
2023-04-25T03:07:18.203Z,6.60
2023-04-25T03:09:45.358Z,6.60
2023-04-25T03:12:13.319Z,6.60
2023-04-25T03:14:40.379Z,6.60
2023-04-25T03:17:07.417Z,6.60
2023-04-25T03:19:36.424Z,6.60
2023-04-25T03:22:03.450Z,6.60
2023-04-25T03:24:30.512Z,6.60
2023-04-25T03:26:57.610Z,6.60
2023-04-25T03:29:27.496Z,6.50
2023-04-25T03:31:56.147Z,6.60
2023-04-25T03:34:23.339Z,6.60
2023-04-25T03:36:50.487Z,6.60
2023-04-25T03:39:17.814Z,6.60
2023-04-25T03:41:49.005Z,6.60
2023-04-25T03:44:18.534Z,6.60
2023-04-25T03:46:45.732Z,6.60
2023-04-25T03:49:13.330Z,6.60
2023-04-25T03:51:55.250Z,6.60
2023-04-25T03:54:23.772Z,6.60
2023-04-25T03:56:57.190Z,6.60
2023-04-25T03:59:27.889Z,6.60
2023-04-25T04:01:56.050Z,6.60
2023-04-25T04:04:23.766Z,6.60
2023-04-25T04:06:51.910Z,6.60
2023-04-25T04:09:24.889Z,6.60
2023-04-25T04:11:52.100Z,6.50
2023-04-25T04:14:19.079Z,6.60
2023-04-25T04:16:47.997Z,6.60
2023-04-25T04:19:15.272Z,6.60
2023-04-25T04:21:47.732Z,6.50
2023-04-25T04:24:16.310Z,6.60
2023-04-25T04:26:51.779Z,6.60
2023-04-25T04:29:38.970Z,6.60
2023-04-25T04:32:16.471Z,6.60
2023-04-25T04:34:43.619Z,6.70
2023-04-25T04:37:14.113Z,6.60
2023-04-25T04:39:42.423Z,6.60
2023-04-25T04:42:29.203Z,6.60
2023-04-25T04:45:05.703Z,6.70
2023-04-25T04:47:58.430Z,6.70
2023-04-25T04:50:40.016Z,6.60
2023-04-25T04:53:27.992Z,6.70
2023-04-25T04:56:09.572Z,6.70
2023-04-25T04:58:54.544Z,6.70
2023-04-25T05:01:44.122Z,6.70
2023-04-25T05:04:41.796Z,6.80
2023-04-25T05:07:29.136Z,6.70
2023-04-25T05:10:20.495Z,6.70
2023-04-25T05:13:06.263Z,6.70
2023-04-25T05:15:52.530Z,6.80
2023-04-25T05:18:42.913Z,6.80
2023-04-25T05:21:28.448Z,6.80
2023-04-25T05:24:15.709Z,6.80
2023-04-25T05:27:01.291Z,6.90
2023-04-25T05:29:48.311Z,6.90
2023-04-25T05:32:26.559Z,6.90
2023-04-25T05:34:54.244Z,6.90
2023-04-25T05:37:27.682Z,6.90
2023-04-25T05:40:07.784Z,6.90
2023-04-25T05:42:53.546Z,7.00
2023-04-25T05:45:30.349Z,7.00
2023-04-25T05:48:29.529Z,7.00
2023-04-25T05:51:01.328Z,7.10
2023-04-25T05:53:49.306Z,7.10
2023-04-25T05:56:16.649Z,7.10
2023-04-25T05:58:43.742Z,7.10
2023-04-25T06:01:13.657Z,7.10
2023-04-25T06:03:44.142Z,7.20
2023-04-25T06:06:12.453Z,7.10
2023-04-25T06:08:39.571Z,7.00
2023-04-25T06:11:07.090Z,7.10
2023-04-25T06:13:34.377Z,7.10
2023-04-25T06:16:01.682Z,7.10
2023-04-25T06:18:29.397Z,7.20
2023-04-25T06:20:56.469Z,7.20
2023-04-25T06:23:24.446Z,7.30
2023-04-25T06:26:03.613Z,7.30
2023-04-25T06:28:32.121Z,7.30
2023-04-25T06:31:00.001Z,7.30
2023-04-25T06:33:27.928Z,7.40
2023-04-25T06:35:56.136Z,7.40
2023-04-25T06:38:27.258Z,7.40
2023-04-25T06:40:57.056Z,7.50
2023-04-25T06:43:24.094Z,7.50
2023-04-25T06:45:51.093Z,7.60
2023-04-25T06:48:20.349Z,7.50
2023-04-25T06:50:47.398Z,7.60
2023-04-25T06:53:15.059Z,7.50
2023-04-25T06:55:44.797Z,7.60
2023-04-25T06:58:23.363Z,7.70
2023-04-25T07:00:57.895Z,7.60
2023-04-25T07:03:27.055Z,7.70
2023-04-25T07:05:59.433Z,7.70
2023-04-25T07:08:26.584Z,7.70
2023-04-25T07:10:53.642Z,7.60
2023-04-25T07:13:22.026Z,7.60
2023-04-25T07:15:49.690Z,7.60
2023-04-25T07:18:18.569Z,7.70
2023-04-25T07:20:45.721Z,7.80
2023-04-25T07:23:13.399Z,7.90
2023-04-25T07:25:40.848Z,7.90
2023-04-25T07:28:10.053Z,7.90
2023-04-25T07:30:37.813Z,7.80
2023-04-25T07:33:05.087Z,8.00
2023-04-25T07:35:32.458Z,7.90
2023-04-25T07:38:00.256Z,7.80
2023-04-25T07:40:27.546Z,7.70
2023-04-25T07:43:01.245Z,7.70
2023-04-25T07:45:35.418Z,7.70
2023-04-25T07:48:05.313Z,7.80
2023-04-25T07:50:35.887Z,7.80
2023-04-25T07:53:03.167Z,8.00
2023-04-25T07:55:37.781Z,8.00
2023-04-25T07:58:22.172Z,8.10
2023-04-25T08:00:55.430Z,8.20
2023-04-25T08:03:43.051Z,8.10
2023-04-25T08:06:19.535Z,8.20
2023-04-25T08:09:04.052Z,8.40
2023-04-25T08:11:38.269Z,8.40
2023-04-25T08:14:06.694Z,8.50
2023-04-25T08:16:34.687Z,8.60
2023-04-25T08:19:02.715Z,8.70
2023-04-25T08:21:31.406Z,8.80
2023-04-25T08:24:04.354Z,8.80
2023-04-25T08:26:35.703Z,8.90
2023-04-25T08:29:02.911Z,9.00
2023-04-25T08:31:30.431Z,9.00
2023-04-25T08:34:01.814Z,9.10
2023-04-25T08:36:40.541Z,9.00
2023-04-25T08:39:21.955Z,9.00
2023-04-25T08:42:13.741Z,9.10
2023-04-25T08:44:41.149Z,9.20
2023-04-25T08:47:08.392Z,9.20
2023-04-25T08:49:47.725Z,9.20
2023-04-25T08:52:20.962Z,9.30
2023-04-25T08:54:50.296Z,9.60
2023-04-25T08:57:19.313Z,9.80
2023-04-25T08:59:48.844Z,9.70
2023-04-25T09:02:19.100Z,9.80
2023-04-25T09:04:50.728Z,9.80
2023-04-25T09:07:22.189Z,9.90
2023-04-25T09:09:49.397Z,10.10
2023-04-25T09:12:21.838Z,10.20
2023-04-25T09:15:10.749Z,10.50
2023-04-25T09:17:57.338Z,10.60
2023-04-25T09:20:27.333Z,10.60
2023-04-25T09:23:03.828Z,10.90
2023-04-25T09:25:44.385Z,11.00
2023-04-25T09:28:12.951Z,10.80
2023-04-25T09:30:40.396Z,11.10
2023-04-25T09:33:21.577Z,11.10
2023-04-25T09:35:57.218Z,11.20
2023-04-25T09:38:41.449Z,11.00
2023-04-25T09:41:14.064Z,10.70
2023-04-25T09:43:50.294Z,10.70
2023-04-25T09:46:18.466Z,10.40
2023-04-25T09:48:55.252Z,10.30
2023-04-25T09:51:36.298Z,10.20
2023-04-25T09:54:07.500Z,10.30
2023-04-25T09:56:42.702Z,10.30
2023-04-25T09:59:13.692Z,10.30
2023-04-25T10:01:42.591Z,10.20
2023-04-25T10:04:22.397Z,10.20
2023-04-25T10:07:06.854Z,9.90
2023-04-25T10:09:35.796Z,9.80
2023-04-25T10:12:04.458Z,9.90
2023-04-25T10:14:32.561Z,10.00
2023-04-25T10:17:02.365Z,10.20
2023-04-25T10:19:30.647Z,10.30
2023-04-25T10:22:06.009Z,10.20
2023-04-25T10:24:33.451Z,10.40
2023-04-25T10:27:01.530Z,10.60
2023-04-25T10:29:29.236Z,10.40
2023-04-25T10:31:56.521Z,10.60
2023-04-25T10:34:42.488Z,10.60
2023-04-25T10:37:13.193Z,10.40
2023-04-25T10:39:43.963Z,10.40
2023-04-25T10:42:11.098Z,10.50
2023-04-25T10:44:39.316Z,10.80
2023-04-25T10:47:10.939Z,11.20
2023-04-25T10:49:43.264Z,11.30
2023-04-25T10:52:30.811Z,11.20
2023-04-25T10:54:59.197Z,11.10
2023-04-25T10:57:38.337Z,10.70
2023-04-25T11:00:17.044Z,10.20
2023-04-25T11:02:55.649Z,10.00
2023-04-25T11:05:57.372Z,10.00
2023-04-25T11:08:35.082Z,9.60
2023-04-25T11:11:03.171Z,9.60
2023-04-25T11:13:31.641Z,9.80
2023-04-25T11:16:07.284Z,9.90
2023-04-25T11:18:42.629Z,10.00
2023-04-25T11:21:14.427Z,9.90
2023-04-25T11:23:41.709Z,9.80
2023-04-25T11:26:08.940Z,9.90
2023-04-25T11:28:35.978Z,9.90
2023-04-25T11:31:05.457Z,10.00
2023-04-25T11:33:32.578Z,10.30
2023-04-25T11:35:59.927Z,10.60
2023-04-25T11:38:28.049Z,11.10
2023-04-25T11:40:56.742Z,11.40
2023-04-25T11:43:24.101Z,11.60
2023-04-25T11:45:52.209Z,11.50
2023-04-25T11:48:26.307Z,11.20
2023-04-25T11:50:56.195Z,11.00
2023-04-25T11:53:25.063Z,10.50
2023-04-25T11:55:52.174Z,10.20
2023-04-25T11:58:20.660Z,10.10
2023-04-25T12:00:50.555Z,10.00
2023-04-25T12:03:20.073Z,9.90
2023-04-25T12:05:49.016Z,10.00
2023-04-25T12:08:17.555Z,10.10
2023-04-25T12:10:47.099Z,10.20
2023-04-25T12:13:40.443Z,10.40
2023-04-25T12:16:07.707Z,10.50
2023-04-25T12:18:37.158Z,10.50
2023-04-25T12:21:06.035Z,10.60
2023-04-25T12:23:33.266Z,10.90
2023-04-25T12:26:00.701Z,11.30
2023-04-25T12:28:32.835Z,11.50
2023-04-25T12:31:05.608Z,12.00
2023-04-25T12:33:37.955Z,11.90
2023-04-25T12:36:10.363Z,11.90
2023-04-25T12:38:42.055Z,11.80
2023-04-25T12:41:10.389Z,11.50
2023-04-25T12:43:37.438Z,11.40
2023-04-25T12:46:04.646Z,11.40
2023-04-25T12:48:32.325Z,11.00
2023-04-25T12:50:59.896Z,10.70
2023-04-25T12:53:27.358Z,10.70
2023-04-25T12:58:22.477Z,10.70
2023-04-25T13:00:50.238Z,10.60
2023-04-25T13:03:17.617Z,10.70
2023-04-25T13:05:44.804Z,10.60
2023-04-25T13:08:12.543Z,10.90
2023-04-25T13:10:40.422Z,10.90
2023-04-25T13:13:07.790Z,10.80
2023-04-25T13:15:34.877Z,10.90
2023-04-25T13:18:02.066Z,11.00
2023-04-25T13:20:29.342Z,11.20
2023-04-25T13:23:00.318Z,11.60
2023-04-25T13:25:28.176Z,11.70
2023-04-25T13:27:56.250Z,11.80
2023-04-25T13:30:23.368Z,12.30
2023-04-25T13:32:50.474Z,12.60
2023-04-25T13:35:18.418Z,12.70
2023-04-25T13:37:46.355Z,12.20
2023-04-25T13:40:13.550Z,12.00
2023-04-25T13:42:41.270Z,11.80
2023-04-25T13:45:08.944Z,11.60
2023-04-25T13:47:36.432Z,11.60
2023-04-25T13:50:04.646Z,11.80
2023-04-25T13:52:31.796Z,12.10
2023-04-25T13:55:01.865Z,12.10
2023-04-25T13:57:28.916Z,11.90
2023-04-25T13:59:56.070Z,11.60
2023-04-25T14:02:23.414Z,11.70
2023-04-25T14:04:50.669Z,11.70
2023-04-25T14:07:17.995Z,11.80
2023-04-25T14:09:45.484Z,11.80
2023-04-25T14:12:12.571Z,11.40
2023-04-25T14:14:39.807Z,11.30
2023-04-25T14:17:07.900Z,11.60
2023-04-25T14:19:34.982Z,12.10
2023-04-25T14:22:03.432Z,12.40
2023-04-25T14:24:30.643Z,12.60
2023-04-25T14:26:57.770Z,12.70
2023-04-25T14:29:24.748Z,12.70
2023-04-25T14:31:51.790Z,12.30
2023-04-25T14:34:18.917Z,11.80
2023-04-25T14:36:46.225Z,11.40
2023-04-25T14:39:15.184Z,11.30
2023-04-25T14:41:42.238Z,11.30
2023-04-25T14:44:09.470Z,11.20
2023-04-25T14:46:36.886Z,11.20
2023-04-25T14:49:04.835Z,11.40
2023-04-25T14:51:32.124Z,11.50
2023-04-25T14:53:59.185Z,11.40
2023-04-25T14:56:26.578Z,11.40
2023-04-25T14:58:53.741Z,11.30
2023-04-25T15:01:21.923Z,11.10
2023-04-25T15:03:49.614Z,11.00
2023-04-25T15:06:17.439Z,11.20
2023-04-25T15:08:44.357Z,11.10
2023-04-25T15:11:12.105Z,10.90
2023-04-25T15:13:39.510Z,10.90
2023-04-25T15:16:07.766Z,10.70
2023-04-25T15:18:34.863Z,10.70
2023-04-25T15:21:02.386Z,10.80
2023-04-25T15:23:29.918Z,10.80
2023-04-25T15:25:57.541Z,11.00
2023-04-25T15:28:24.612Z,10.90
2023-04-25T15:30:51.781Z,11.00
2023-04-25T15:33:18.806Z,11.30
2023-04-25T15:35:45.930Z,11.30
2023-04-25T15:38:13.255Z,11.50
2023-04-25T15:40:41.858Z,11.40
2023-04-25T15:43:15.422Z,11.40
2023-04-25T15:45:42.873Z,11.60
2023-04-25T15:48:09.908Z,11.60
2023-04-25T15:50:38.307Z,11.80
2023-04-25T15:53:07.119Z,11.50
2023-04-25T15:55:35.320Z,11.70
2023-04-25T15:58:02.563Z,12.10
2023-04-25T16:00:29.932Z,11.70
2023-04-25T16:02:57.394Z,11.70
2023-04-25T16:05:24.635Z,11.50
2023-04-25T16:07:53.886Z,11.20
2023-04-25T16:10:21.770Z,11.30
2023-04-25T16:12:50.283Z,11.10
2023-04-25T16:15:17.987Z,11.10
2023-04-25T16:17:45.152Z,11.00
2023-04-25T16:20:13.401Z,11.10
2023-04-25T16:22:42.201Z,11.30
2023-04-25T16:25:10.588Z,11.20
2023-04-25T16:27:39.572Z,11.20
2023-04-25T16:30:11.165Z,11.50
2023-04-25T16:32:42.642Z,11.30
2023-04-25T16:35:12.383Z,11.20
2023-04-25T16:37:39.654Z,11.30
2023-04-25T16:40:10.200Z,11.40
2023-04-25T16:42:37.738Z,11.40
2023-04-25T16:45:05.342Z,11.10
2023-04-25T16:47:32.462Z,10.90
2023-04-25T16:50:03.166Z,10.80
2023-04-25T16:52:30.478Z,10.70
2023-04-25T16:54:57.658Z,10.30
2023-04-25T16:57:24.686Z,10.50
2023-04-25T16:59:52.068Z,10.60
2023-04-25T17:02:19.255Z,10.60
2023-04-25T17:04:46.413Z,10.50
2023-04-25T17:07:13.449Z,10.60
2023-04-25T17:09:41.047Z,10.60
2023-04-25T17:12:08.254Z,10.70
2023-04-25T17:14:37.141Z,10.50
2023-04-25T17:17:04.479Z,10.50
2023-04-25T17:19:32.079Z,10.50
2023-04-25T17:21:59.341Z,10.40
2023-04-25T17:24:26.480Z,10.20
2023-04-25T17:26:53.622Z,10.20
2023-04-25T17:29:23.651Z,10.10
2023-04-25T17:31:50.932Z,10.20
2023-04-25T17:34:18.096Z,10.10
2023-04-25T17:36:51.196Z,10.10
2023-04-25T17:39:18.394Z,10.10
2023-04-25T17:41:46.046Z,10.10
2023-04-25T17:44:13.418Z,9.90
2023-04-25T17:46:40.526Z,9.90
2023-04-25T17:49:07.825Z,9.70
2023-04-25T17:51:38.662Z,9.70
2023-04-25T17:54:08.609Z,9.70
2023-04-25T17:56:40.636Z,9.70
2023-04-25T17:59:08.447Z,9.70
2023-04-25T18:01:36.085Z,9.70
2023-04-25T18:04:04.471Z,9.60
2023-04-25T18:06:33.092Z,9.70
2023-04-25T18:09:01.889Z,9.60
2023-04-25T18:11:31.941Z,9.20
2023-04-25T18:13:59.273Z,9.30
2023-04-25T18:16:26.378Z,9.40
2023-04-25T18:18:53.794Z,9.30
2023-04-25T18:21:21.736Z,9.30
2023-04-25T18:23:50.066Z,9.20
2023-04-25T18:26:17.385Z,9.20
2023-04-25T18:28:45.054Z,9.10
2023-04-25T18:31:12.258Z,9.10
2023-04-25T18:33:40.356Z,9.00
2023-04-25T18:36:58.335Z,9.00
2023-04-25T18:39:26.402Z,8.90
2023-04-25T18:42:01.460Z,8.90
2023-04-25T18:44:36.626Z,8.80
2023-04-25T18:47:06.057Z,8.80
2023-04-25T18:49:33.799Z,8.80
2023-04-25T18:52:03.739Z,8.70
2023-04-25T18:54:33.575Z,8.70
2023-04-25T18:57:02.574Z,8.60
2023-04-25T18:59:29.973Z,8.60
2023-04-25T19:01:57.266Z,8.50
2023-04-25T19:04:24.568Z,8.50
2023-04-25T19:06:52.318Z,8.40
2023-04-25T19:09:19.603Z,8.40
2023-04-25T19:11:47.912Z,8.40
2023-04-25T19:14:15.569Z,8.30
2023-04-25T19:16:42.832Z,8.30
2023-04-25T19:19:11.762Z,8.30
2023-04-25T19:21:46.312Z,8.30
2023-04-25T19:24:13.563Z,8.30
2023-04-25T19:26:41.043Z,8.20
2023-04-25T19:29:10.662Z,8.20
2023-04-25T19:31:38.935Z,8.10
2023-04-25T19:34:07.728Z,8.00
2023-04-25T19:36:37.238Z,8.00
2023-04-25T19:39:07.488Z,8.00
2023-04-25T19:41:37.064Z,8.00
2023-04-25T19:44:07.485Z,8.00
2023-04-25T19:46:37.155Z,7.90
2023-04-25T19:49:08.414Z,7.90
2023-04-25T19:51:36.452Z,7.80
2023-04-25T19:54:04.924Z,7.90
2023-04-25T19:56:33.213Z,7.80
2023-04-25T19:59:00.397Z,7.80
2023-04-25T20:01:27.806Z,7.70
2023-04-25T20:03:55.474Z,7.70
2023-04-25T20:06:24.752Z,7.70
2023-04-25T20:08:56.402Z,7.70
2023-04-25T20:11:24.460Z,7.70
2023-04-25T20:13:51.840Z,7.70
2023-04-25T20:16:21.171Z,7.70
2023-04-25T20:18:49.064Z,7.70
2023-04-25T20:21:17.128Z,7.60
2023-04-25T20:23:44.287Z,7.50
2023-04-25T20:26:14.747Z,7.50
2023-04-25T20:28:42.035Z,7.50
2023-04-25T20:31:10.780Z,7.40
2023-04-25T20:33:38.821Z,7.30
2023-04-25T20:36:06.138Z,7.30
2023-04-25T20:38:33.155Z,7.30
2023-04-25T20:41:00.576Z,7.30
2023-04-25T20:43:29.415Z,7.30
2023-04-25T20:45:57.495Z,7.20
2023-04-25T20:48:26.881Z,7.20
2023-04-25T20:50:53.997Z,7.10
2023-04-25T20:53:23.712Z,7.10
2023-04-25T20:55:50.674Z,7.10
2023-04-25T20:58:19.779Z,7.00
2023-04-25T21:00:55.452Z,6.90
2023-04-25T21:03:26.202Z,6.90
2023-04-25T21:05:54.678Z,6.80
2023-04-25T21:08:21.782Z,6.70
2023-04-25T21:10:49.095Z,6.70
2023-04-25T21:13:16.641Z,6.60
2023-04-25T21:15:43.821Z,6.70
2023-04-25T21:18:11.139Z,6.70
2023-04-25T21:20:40.263Z,6.60
2023-04-25T21:23:07.271Z,6.60
2023-04-25T21:25:35.788Z,6.50
2023-04-25T21:28:04.083Z,6.60
2023-04-25T21:30:31.438Z,6.50
2023-04-25T21:32:59.802Z,6.50
2023-04-25T21:35:27.038Z,6.40
2023-04-25T21:37:54.122Z,6.40
2023-04-25T21:40:21.284Z,6.40
2023-04-25T21:42:53.736Z,6.40
2023-04-25T21:45:22.187Z,6.40
2023-04-25T21:47:49.605Z,6.40
2023-04-25T21:50:18.063Z,6.40
2023-04-25T21:52:45.104Z,6.30
2023-04-25T21:55:12.182Z,6.30
2023-04-25T21:57:39.410Z,6.40
2023-04-25T22:00:20.204Z,6.40
2023-04-25T22:02:48.226Z,6.30
2023-04-25T22:05:15.462Z,6.30
2023-04-25T22:07:42.552Z,6.10
2023-04-25T22:10:10.271Z,6.10
2023-04-25T22:12:37.604Z,6.10
2023-04-25T22:15:05.159Z,6.00
2023-04-25T22:17:33.297Z,6.00
2023-04-25T22:20:00.738Z,6.00
2023-04-25T22:22:27.991Z,6.00
2023-04-25T22:24:55.016Z,6.00
2023-04-25T22:27:22.439Z,5.90
2023-04-25T22:29:50.515Z,5.90
2023-04-25T22:32:17.541Z,5.90
2023-04-25T22:34:44.659Z,5.90
2023-04-25T22:37:11.597Z,5.90
2023-04-25T22:39:39.406Z,5.80
2023-04-25T22:42:06.358Z,5.80
2023-04-25T22:44:34.068Z,5.80
2023-04-25T22:47:01.731Z,5.70
2023-04-25T22:49:28.850Z,5.70
2023-04-25T22:51:56.881Z,5.70
2023-04-25T22:54:24.159Z,5.70
2023-04-25T22:56:51.161Z,5.70
2023-04-25T22:59:20.753Z,5.70
2023-04-25T23:01:50.116Z,5.60
2023-04-25T23:04:18.920Z,5.60
2023-04-25T23:06:48.748Z,5.60
2023-04-25T23:09:15.959Z,5.60
2023-04-25T23:11:42.982Z,5.60
2023-04-25T23:14:10.303Z,5.60
2023-04-25T23:16:37.454Z,5.60
2023-04-25T23:19:04.485Z,5.50
2023-04-25T23:21:31.570Z,5.40
2023-04-25T23:23:58.615Z,5.30
2023-04-25T23:26:25.629Z,5.20
2023-04-25T23:28:55.265Z,5.10
2023-04-25T23:31:22.515Z,5.10
2023-04-25T23:33:49.591Z,5.10
2023-04-25T23:36:22.886Z,5.00
2023-04-25T23:38:50.712Z,5.00
2023-04-25T23:41:18.231Z,5.00
2023-04-25T23:43:45.763Z,5.00
2023-04-25T23:46:13.588Z,5.00
2023-04-25T23:48:41.381Z,4.90
2023-04-25T23:51:08.322Z,4.90
2023-04-25T23:53:35.247Z,4.80
2023-04-25T23:56:02.328Z,4.80
2023-04-25T23:58:29.381Z,4.70
